Portada
METAR-TAF:

METAR-TAF

Aeroports :

Gwalior, Índia

latitud: 26-17-36N, longitud: 78-13-40E, altitud: 188 m

METAR: manca

Hora: 11:02 (05:32 UTC)

Pronòstic

L'informe es va fer fa 20 hores i 2 minuts, a les 09:30 UTC
Pronòstic vàlid del 17 a les 12 UTC al 18 a les 00 UTC
Vent 5 kt del Oest/Nord-Oest
Visibilitat: 2500 m
Núvols disperses a una alçada de 2000 ft
Núvols disperses a una alçada de 3000 ft
boirina
Evolucionant progressivament
l' 17 a les 16 UTC al 17 a les 18 UTC
Vent 2 kt amb direcció variable
Visibilitat: 1500 m
Cel ennuvolat a una alçada de 1800 ft
Núvols disperses a una alçada de 9000 ft
boirina
Evolucionant progressivament
l' 17 a les 18 UTC al 17 a les 20 UTC
Vent 2 kt amb direcció variable
Visibilitat: 0500 m
boira
Temporalment
l' 17 a les 15 UTC al 17 a les 15 UTC
pluja

TAF: VIGR 170930Z 1712/1800 30005KT 2500 BR SCT020 SCT030 BECMG 1716/1718 VRB02KT 1500 BR BKN018 SCT090 BECMG 1718/1720 VRB02KT 0500 FG VV/// TEMPO 1715/1715 -RA

Observacions i pronòstics meteorològics de més de 4000 aeroports (METAR i TAF).

Les estacions disponibles són els punts grocs i vermells al mapa.

Posi el ratolí al punt desitjat per veure el nom de l'estació.

Feu clic per veure les observacions i els pronòstics meteorològics.

Per canviar el mapa: feu clic els botons verds amb una creu de color negre per apropar; al botó verd amb un guió per allunyar la imatge; o en les fletxes verdes per a mapes adjacents.


METAR-TAF: